Time;durP1;ratioP1;P1;durP2;ratioP2;P2;SDS_P1;SDS_P2;PMS_P1;PMS_P2;Temp;Humidity;BMP_temperature;BMP_pressure;BME280_temperature;BME280_humidity;BME280_pressure;Samples;Min_cycle;Max_cycle;Signal;HPM_P1;HPM_P2
2023/02/17 00:00:22;;;;;;;1.52;1.30;;;21.40;43.00;;;;;;5064319;28;20021;-54
2023/02/17 00:02:48;;;;;;;1.55;1.30;;;21.40;43.00;;;;;;5060597;28;20029;-54
2023/02/17 00:05:14;;;;;;;1.23;1.10;;;21.40;43.00;;;;;;5064232;28;20025;-53
2023/02/17 00:07:40;;;;;;;1.35;1.25;;;21.40;43.10;;;;;;5065208;28;20024;-51
2023/02/17 00:10:07;;;;;;;1.52;1.10;;;21.40;43.10;;;;;;5063029;28;20086;-51
2023/02/17 00:12:33;;;;;;;1.52;1.20;;;21.40;43.10;;;;;;5058594;28;20473;-50
2023/02/17 00:14:59;;;;;;;1.38;1.10;;;21.30;43.10;;;;;;5059363;28;20036;-51
2023/02/17 00:17:25;;;;;;;3.15;1.38;;;21.30;43.10;;;;;;5061421;28;20041;-50
2023/02/17 00:19:54;;;;;;;1.48;1.00;;;21.30;43.10;;;;;;5061264;28;20024;-52
2023/02/17 00:22:20;;;;;;;1.48;1.20;;;21.30;43.10;;;;;;5060705;28;20036;-52
2023/02/17 00:24:46;;;;;;;1.70;1.20;;;21.30;43.10;;;;;;5062591;28;20109;-52
2023/02/17 00:27:12;;;;;;;1.30;1.10;;;21.30;43.20;;;;;;5058970;28;20116;-52
2023/02/17 00:29:37;;;;;;;1.90;1.30;;;21.30;43.20;;;;;;5062161;28;20029;-53
2023/02/17 00:32:04;;;;;;;1.33;1.10;;;21.30;43.80;;;;;;5061240;28;20037;-51
2023/02/17 00:34:29;;;;;;;1.02;0.80;;;21.30;43.20;;;;;;5059301;28;20039;-50
2023/02/17 00:36:55;;;;;;;1.60;0.90;;;21.30;43.20;;;;;;5064479;28;20029;-49
2023/02/17 00:39:21;;;;;;;1.88;1.05;;;21.30;43.20;;;;;;5044708;28;20064;-51
2023/02/17 00:41:48;;;;;;;1.10;1.00;;;21.20;43.80;;;;;;5043114;28;20024;-53
2023/02/17 00:44:19;;;;;;;1.65;1.10;;;21.20;43.20;;;;;;5045353;28;20029;-49
2023/02/17 00:46:45;;;;;;;1.65;1.20;;;21.20;43.20;;;;;;5043148;28;20025;-51
2023/02/17 00:49:17;;;;;;;1.58;1.00;;;21.20;43.20;;;;;;5058597;28;20090;-52
2023/02/17 00:51:44;;;;;;;3.22;0.70;;;21.20;43.20;;;;;;5058845;28;20048;-53
2023/02/17 00:54:10;;;;;;;1.38;0.80;;;21.20;43.20;;;;;;5061667;28;20083;-51
2023/02/17 00:56:36;;;;;;;0.90;0.90;;;21.20;43.20;;;;;;5045634;28;20471;-51
2023/02/17 00:59:02;;;;;;;0.70;0.70;;;21.20;43.30;;;;;;5059491;28;20063;-46
2023/02/17 01:01:28;;;;;;;1.10;0.80;;;21.20;43.30;;;;;;5065055;28;20033;-51
2023/02/17 01:03:54;;;;;;;1.27;0.93;;;21.20;43.30;;;;;;5061019;28;20024;-53
2023/02/17 01:06:28;;;;;;;1.00;0.82;;;21.20;43.30;;;;;;5062754;28;20036;-51
2023/02/17 01:08:54;;;;;;;1.15;1.00;;;21.20;43.30;;;;;;5041606;28;20040;-51
2023/02/17 01:11:23;;;;;;;0.82;0.80;;;21.20;43.30;;;;;;5039106;28;20487;-52
2023/02/17 01:13:49;;;;;;;1.52;0.82;;;21.20;43.30;;;;;;5060355;28;20029;-51
2023/02/17 01:16:21;;;;;;;0.80;0.70;;;21.20;43.40;;;;;;5058736;28;20040;-51
2023/02/17 01:18:48;;;;;;;1.20;0.80;;;21.20;43.40;;;;;;5059553;28;20029;-53
2023/02/17 01:21:19;;;;;;;1.00;0.80;;;21.10;43.30;;;;;;5027798;28;20317;-52
2023/02/17 01:23:47;;;;;;;1.05;0.95;;;21.20;43.40;;;;;;5061123;28;20040;-52
2023/02/17 01:26:16;;;;;;;0.88;0.80;;;21.20;43.40;;;;;;5060916;28;20021;-49
2023/02/17 01:28:42;;;;;;;2.17;1.00;;;21.10;43.40;;;;;;5041522;28;20036;-48
2023/02/17 01:31:09;;;;;;;1.25;0.70;;;21.10;43.40;;;;;;5058841;28;20036;-48
2023/02/17 01:33:35;;;;;;;0.88;0.82;;;21.10;43.40;;;;;;5042253;28;20024;-50
2023/02/17 01:36:03;;;;;;;0.70;0.60;;;21.10;43.50;;;;;;5059387;28;20025;-47
2023/02/17 01:38:29;;;;;;;1.05;0.90;;;21.10;43.50;;;;;;5045931;28;20039;-51
2023/02/17 01:40:54;;;;;;;0.95;0.80;;;21.10;43.50;;;;;;5058195;28;20024;-47
2023/02/17 01:43:21;;;;;;;0.80;0.80;;;21.10;43.50;;;;;;5058614;28;20142;-55
2023/02/17 01:45:59;;;;;;;1.67;0.70;;;21.10;43.50;;;;;;5062221;28;20321;-52
2023/02/17 01:48:33;;;;;;;0.73;0.70;;;21.10;43.50;;;;;;5062368;28;20020;-51
2023/02/17 01:51:22;;;;;;;0.70;0.60;;;21.10;43.50;;;;;;5040717;28;20128;-53
2023/02/17 01:54:12;;;;;;;0.88;0.70;;;21.10;43.50;;;;;;5040307;28;20033;-52
2023/02/17 01:56:41;;;;;;;0.55;0.55;;;21.10;43.60;;;;;;5062784;28;20102;-48
2023/02/17 01:59:11;;;;;;;0.75;0.70;;;21.00;43.60;;;;;;5044636;28;20020;-49
2023/02/17 02:01:38;;;;;;;1.02;0.90;;;21.00;43.50;;;;;;5052123;28;20041;-52
2023/02/17 02:04:05;;;;;;;0.80;0.80;;;21.00;43.60;;;;;;5060616;28;20371;-52
2023/02/17 02:06:33;;;;;;;0.90;0.80;;;21.00;43.60;;;;;;5045803;28;20112;-53
2023/02/17 02:09:23;;;;;;;1.30;0.90;;;21.00;43.60;;;;;;5044161;28;20035;-51
2023/02/17 02:11:50;;;;;;;1.08;0.93;;;21.00;43.60;;;;;;5043205;28;20033;-48
2023/02/17 02:14:19;;;;;;;2.20;0.80;;;21.00;43.60;;;;;;5059921;28;20034;-51
2023/02/17 02:17:20;;;;;;;1.13;0.95;;;21.00;43.60;;;;;;5065661;28;20052;-53
2023/02/17 02:20:08;;;;;;;1.30;0.98;;;21.00;43.60;;;;;;5041861;28;20360;-50
2023/02/17 02:23:05;;;;;;;1.15;1.00;;;21.00;43.60;;;;;;5057744;28;20033;-46
2023/02/17 02:25:55;;;;;;;1.23;1.10;;;21.00;43.60;;;;;;5059563;28;20031;-49
2023/02/17 02:28:49;;;;;;;1.70;1.20;;;21.00;43.60;;;;;;5057921;28;20024;-52
2023/02/17 02:31:36;;;;;;;1.30;1.15;;;21.00;43.60;;;;;;5060424;28;20051;-52
2023/02/17 02:34:08;;;;;;;1.52;1.23;;;21.00;43.70;;;;;;5037135;28;20093;-48
2023/02/17 02:36:45;;;;;;;2.03;1.30;;;21.00;43.70;;;;;;5058860;28;20086;-50
2023/02/17 02:39:19;;;;;;;1.65;1.30;;;21.00;43.80;;;;;;5041818;28;20024;-46
2023/02/17 02:42:02;;;;;;;1.50;1.35;;;20.90;43.70;;;;;;5040826;28;20028;-52
2023/02/17 02:44:29;;;;;;;1.95;1.40;;;20.90;43.70;;;;;;5060810;28;20020;-52
2023/02/17 02:47:23;;;;;;;2.08;1.60;;;20.90;43.70;;;;;;5040010;28;20036;-50
2023/02/17 02:49:49;;;;;;;1.67;1.30;;;21.00;43.80;;;;;;5058186;28;20033;-53
2023/02/17 02:52:31;;;;;;;1.73;1.60;;;20.90;43.70;;;;;;5047552;28;20040;-48
2023/02/17 02:55:11;;;;;;;2.67;1.70;;;20.90;43.70;;;;;;5060939;28;20163;-51
2023/02/17 02:57:55;;;;;;;2.53;1.77;;;20.90;43.60;;;;;;5059274;28;20029;-53
2023/02/17 03:00:41;;;;;;;2.58;2.05;;;20.90;43.60;;;;;;5035826;28;20305;-51
2023/02/17 03:03:28;;;;;;;1.88;1.67;;;20.90;43.60;;;;;;5048961;28;20021;-53
2023/02/17 03:06:32;;;;;;;1.83;1.63;;;20.90;43.60;;;;;;5045985;28;20472;-53
2023/02/17 03:09:04;;;;;;;1.58;1.45;;;20.90;43.60;;;;;;4976198;28;20031;-52
2023/02/17 03:11:33;;;;;;;2.20;2.00;;;20.90;43.60;;;;;;4980188;28;20039;-51
2023/02/17 03:14:12;;;;;;;1.95;1.60;;;20.90;43.60;;;;;;5013868;28;20162;-51
2023/02/17 03:16:39;;;;;;;2.42;1.80;;;20.90;43.60;;;;;;5047905;28;20452;-49
2023/02/17 03:19:07;;;;;;;3.67;1.63;;;20.90;43.50;;;;;;5066372;28;20053;-52
2023/02/17 03:21:46;;;;;;;2.10;1.60;;;20.90;43.50;;;;;;5058270;28;20313;-51
2023/02/17 03:24:12;;;;;;;1.90;1.55;;;20.90;43.50;;;;;;5042602;28;20021;-53
2023/02/17 03:26:38;;;;;;;1.98;1.50;;;20.80;43.50;;;;;;5057030;28;20337;-52
2023/02/17 03:29:04;;;;;;;1.67;1.40;;;20.90;43.50;;;;;;5041297;28;20032;-52
2023/02/17 03:31:30;;;;;;;2.80;1.70;;;20.80;43.40;;;;;;5044440;28;20068;-53
2023/02/17 03:33:56;;;;;;;2.63;1.90;;;20.80;43.40;;;;;;5057232;28;20055;-55
2023/02/17 03:36:22;;;;;;;1.98;1.58;;;20.80;43.40;;;;;;5063113;28;20028;-53
2023/02/17 03:38:48;;;;;;;2.20;1.58;;;20.80;43.40;;;;;;5058523;28;20048;-48
2023/02/17 03:41:14;;;;;;;2.15;1.40;;;20.80;43.50;;;;;;5064421;28;20079;-51
2023/02/17 03:43:39;;;;;;;2.33;1.63;;;20.80;43.40;;;;;;5061743;28;20029;-53
2023/02/17 03:46:11;;;;;;;1.98;1.40;;;20.80;43.40;;;;;;5065808;28;20056;-50
2023/02/17 03:48:37;;;;;;;1.50;1.40;;;20.80;43.40;;;;;;5062628;28;20112;-52
2023/02/17 03:51:17;;;;;;;1.58;1.17;;;20.80;43.40;;;;;;5065447;28;20040;-50
2023/02/17 03:53:45;;;;;;;1.45;1.30;;;20.80;43.40;;;;;;5061718;28;20021;-51
2023/02/17 03:56:12;;;;;;;2.20;1.40;;;20.80;43.40;;;;;;5059209;28;20107;-53
2023/02/17 03:58:40;;;;;;;1.65;1.30;;;20.80;43.40;;;;;;5064332;28;20033;-51
2023/02/17 04:01:07;;;;;;;1.52;1.42;;;20.80;43.30;;;;;;5063118;28;20110;-51
2023/02/17 04:03:33;;;;;;;1.10;1.00;;;20.80;43.40;;;;;;5060211;28;20100;-53
2023/02/17 04:06:00;;;;;;;1.70;1.20;;;20.80;43.40;;;;;;5059874;28;20021;-53
2023/02/17 04:08:26;;;;;;;1.30;1.20;;;20.80;43.30;;;;;;5064713;28;20032;-53
2023/02/17 04:10:54;;;;;;;1.58;1.05;;;20.80;43.30;;;;;;5062994;28;20114;-52
2023/02/17 04:13:20;;;;;;;1.40;1.30;;;20.80;43.40;;;;;;5044572;28;20040;-52
2023/02/17 04:15:46;;;;;;;1.92;1.20;;;20.80;43.40;;;;;;5059230;28;20507;-52
2023/02/17 04:18:13;;;;;;;1.48;1.23;;;20.80;43.40;;;;;;5065275;28;20028;-53
2023/02/17 04:20:39;;;;;;;1.40;1.20;;;20.80;43.40;;;;;;5061910;28;20640;-49
2023/02/17 04:23:05;;;;;;;1.27;1.02;;;20.80;43.40;;;;;;5069177;28;20076;-52
2023/02/17 04:25:36;;;;;;;1.63;1.00;;;20.70;43.30;;;;;;5058145;28;20344;-52
2023/02/17 04:28:06;;;;;;;1.45;1.00;;;20.80;43.40;;;;;;5058555;28;20025;-52
2023/02/17 04:30:32;;;;;;;2.42;1.25;;;20.80;43.40;;;;;;5061003;28;20179;-54
2023/02/17 04:32:59;;;;;;;1.15;1.00;;;20.80;43.50;;;;;;5044791;28;20380;-54
2023/02/17 04:35:24;;;;;;;1.40;1.20;;;20.70;43.30;;;;;;5064550;28;20024;-52
2023/02/17 04:37:51;;;;;;;1.17;1.02;;;20.70;43.40;;;;;;5064543;28;20436;-50
2023/02/17 04:40:18;;;;;;;1.27;0.93;;;20.70;43.40;;;;;;5060389;28;20013;-54
2023/02/17 04:42:44;;;;;;;2.28;1.25;;;20.70;43.40;;;;;;5060512;28;20048;-50
2023/02/17 04:45:11;;;;;;;1.60;1.20;;;20.70;43.40;;;;;;5060369;28;20375;-53
2023/02/17 04:47:36;;;;;;;1.85;1.30;;;20.70;43.40;;;;;;5063489;28;20462;-53
2023/02/17 04:50:04;;;;;;;1.40;1.10;;;20.70;43.40;;;;;;5059313;28;20032;-51
2023/02/17 04:52:30;;;;;;;1.58;1.30;;;20.70;43.40;;;;;;5062924;28;20398;-53
2023/02/17 04:54:55;;;;;;;2.40;1.48;;;20.70;43.40;;;;;;5064628;28;20028;-53
2023/02/17 04:57:21;;;;;;;2.53;1.23;;;20.70;43.40;;;;;;5064591;28;20029;-50
2023/02/17 04:59:47;;;;;;;1.30;1.20;;;20.70;43.40;;;;;;5061673;28;20029;-53
2023/02/17 05:02:13;;;;;;;1.60;1.35;;;20.70;43.40;;;;;;5066609;28;20032;-52
2023/02/17 05:04:39;;;;;;;1.63;1.23;;;20.60;43.50;;;;;;5062906;28;20436;-52
2023/02/17 05:07:04;;;;;;;1.80;1.30;;;20.70;43.50;;;;;;5059185;28;20020;-50
2023/02/17 05:09:30;;;;;;;1.35;1.25;;;20.60;43.40;;;;;;5063953;28;20087;-49
2023/02/17 05:11:56;;;;;;;1.85;1.40;;;20.70;43.50;;;;;;5064754;28;20127;-53
2023/02/17 05:14:22;;;;;;;2.25;1.48;;;20.70;43.50;;;;;;5063206;28;20040;-53
2023/02/17 05:16:48;;;;;;;1.40;1.30;;;20.70;43.60;;;;;;5059000;28;20041;-52
2023/02/17 05:19:13;;;;;;;1.77;1.60;;;20.60;43.50;;;;;;5061830;28;20111;-51
2023/02/17 05:21:39;;;;;;;2.17;1.55;;;20.70;43.60;;;;;;5059358;28;20029;-50
2023/02/17 05:24:05;;;;;;;2.00;1.45;;;20.60;43.60;;;;;;5066272;28;20033;-53
2023/02/17 05:26:31;;;;;;;1.70;1.50;;;20.60;43.60;;;;;;5058804;28;20043;-50
2023/02/17 05:28:57;;;;;;;1.60;1.30;;;20.60;43.70;;;;;;5061980;28;20025;-47
2023/02/17 05:31:23;;;;;;;1.85;1.52;;;20.60;43.70;;;;;;5058003;28;20087;-52
2023/02/17 05:33:49;;;;;;;1.70;1.40;;;20.60;43.70;;;;;;5059433;28;20033;-50
2023/02/17 05:36:14;;;;;;;3.70;1.60;;;20.60;43.70;;;;;;5060176;28;20061;-52
2023/02/17 05:38:40;;;;;;;1.75;1.17;;;20.60;43.80;;;;;;5064277;28;20037;-52
2023/02/17 05:41:07;;;;;;;1.73;1.48;;;20.60;43.90;;;;;;5067860;28;20028;-52
2023/02/17 05:43:32;;;;;;;1.70;1.60;;;20.60;43.90;;;;;;5062945;28;20054;-50
2023/02/17 05:46:05;;;;;;;1.63;1.52;;;20.60;43.90;;;;;;5063978;28;20025;-51
2023/02/17 05:48:31;;;;;;;2.13;1.60;;;20.60;44.00;;;;;;5056869;28;20487;-52
2023/02/17 05:50:57;;;;;;;1.40;1.30;;;20.60;44.00;;;;;;5054290;28;20388;-52
2023/02/17 05:53:23;;;;;;;1.73;1.50;;;20.60;44.00;;;;;;5060465;28;20395;-52
2023/02/17 05:55:49;;;;;;;2.80;1.83;;;20.60;44.00;;;;;;5063047;28;20024;-53
2023/02/17 05:58:14;;;;;;;1.50;1.40;;;20.60;44.10;;;;;;5057387;28;20737;-56
2023/02/17 06:00:40;;;;;;;1.58;1.40;;;20.60;44.10;;;;;;5059108;28;20043;-50
2023/02/17 06:03:06;;;;;;;1.58;1.40;;;20.60;44.10;;;;;;5061405;28;20036;-53
2023/02/17 06:05:32;;;;;;;1.40;1.30;;;20.60;44.10;;;;;;5062035;28;20032;-50
2023/02/17 06:07:58;;;;;;;2.53;1.70;;;20.50;44.10;;;;;;5061111;28;20029;-54
2023/02/17 06:10:24;;;;;;;1.92;1.48;;;20.50;44.10;;;;;;5059487;28;20445;-56
2023/02/17 06:12:50;;;;;;;3.22;1.60;;;20.50;44.10;;;;;;5054925;28;20044;-52
2023/02/17 06:15:16;;;;;;;1.80;1.17;;;20.50;44.10;;;;;;5062016;28;20314;-51
2023/02/17 06:17:42;;;;;;;2.65;1.77;;;20.50;44.10;;;;;;5059820;28;20021;-53
2023/02/17 06:20:09;;;;;;;2.60;1.52;;;20.50;44.20;;;;;;5064615;28;20029;-52
2023/02/17 06:22:34;;;;;;;1.80;1.40;;;20.50;44.20;;;;;;5061355;28;20033;-53
2023/02/17 06:25:00;;;;;;;1.98;1.40;;;20.50;44.80;;;;;;5057278;28;20373;-51
2023/02/17 06:27:26;;;;;;;2.13;1.55;;;20.50;44.30;;;;;;5042300;28;20345;-50
2023/02/17 06:29:52;;;;;;;1.38;1.10;;;20.50;44.30;;;;;;5060267;28;20025;-50
2023/02/17 06:32:18;;;;;;;1.95;1.20;;;20.50;44.30;;;;;;5066217;28;20040;-53
2023/02/17 06:34:44;;;;;;;2.58;1.60;;;20.50;44.30;;;;;;5058196;28;20029;-53
2023/02/17 06:37:10;;;;;;;1.75;1.35;;;20.50;44.40;;;;;;5060325;28;20451;-50
2023/02/17 06:39:36;;;;;;;1.30;1.10;;;20.50;44.40;;;;;;5058137;28;20024;-49
2023/02/17 06:42:01;;;;;;;1.52;1.10;;;20.50;44.40;;;;;;5058649;28;20087;-54
2023/02/17 06:44:27;;;;;;;1.40;1.10;;;20.50;44.40;;;;;;5056649;28;20123;-54
2023/02/17 06:46:53;;;;;;;1.73;1.30;;;20.50;44.40;;;;;;5057483;28;20452;-52
2023/02/17 06:49:19;;;;;;;2.03;1.10;;;20.50;44.40;;;;;;5057490;28;20082;-53
2023/02/17 06:51:45;;;;;;;2.10;1.30;;;20.50;44.50;;;;;;5067064;28;20039;-50
2023/02/17 06:54:11;;;;;;;1.75;1.10;;;20.50;44.50;;;;;;5063518;28;20115;-53
2023/02/17 06:56:36;;;;;;;1.70;1.23;;;20.50;44.50;;;;;;5059558;28;20102;-53
2023/02/17 06:59:02;;;;;;;2.00;1.25;;;20.50;44.50;;;;;;5054798;28;20060;-53
2023/02/17 07:01:28;;;;;;;1.70;1.23;;;20.50;44.60;;;;;;5054830;28;20036;-48
2023/02/17 07:03:55;;;;;;;2.55;1.42;;;20.50;44.60;;;;;;5057979;28;20029;-54
2023/02/17 07:06:23;;;;;;;1.92;1.35;;;20.50;44.60;;;;;;5063697;28;20119;-52
2023/02/17 07:08:49;;;;;;;1.77;1.40;;;20.50;44.70;;;;;;5063554;28;20039;-53
2023/02/17 07:11:16;;;;;;;1.50;1.20;;;20.50;44.70;;;;;;5057968;28;20448;-50
2023/02/17 07:13:42;;;;;;;1.58;1.20;;;20.50;44.70;;;;;;5046665;28;20459;-51
2023/02/17 07:16:10;;;;;;;2.90;1.35;;;20.50;44.70;;;;;;5059002;28;20045;-49
2023/02/17 07:18:36;;;;;;;2.15;1.50;;;20.50;44.80;;;;;;5061531;28;20048;-50
2023/02/17 07:21:04;;;;;;;1.40;1.30;;;20.50;44.80;;;;;;5046277;28;20042;-52
2023/02/17 07:23:30;;;;;;;1.40;1.30;;;20.50;44.80;;;;;;5060365;28;20039;-49
2023/02/17 07:26:05;;;;;;;1.65;1.20;;;20.40;44.80;;;;;;5057557;28;20444;-49
2023/02/17 07:28:31;;;;;;;2.97;1.65;;;20.50;44.90;;;;;;5059324;28;20370;-49
2023/02/17 07:31:03;;;;;;;2.80;1.50;;;20.50;44.90;;;;;;5055637;28;20028;-51
2023/02/17 07:33:29;;;;;;;2.45;1.35;;;20.40;44.90;;;;;;5039044;28;20410;-48
2023/02/17 07:35:54;;;;;;;3.30;1.85;;;20.50;45.00;;;;;;5055234;28;20024;-56
2023/02/17 07:38:20;;;;;;;2.40;1.58;;;20.40;45.00;;;;;;5053581;28;20029;-51
2023/02/17 07:40:47;;;;;;;3.47;1.50;;;20.40;45.00;;;;;;5057898;28;20040;-50
2023/02/17 07:43:13;;;;;;;4.05;1.85;;;20.40;45.00;;;;;;5058126;28;20033;-50
2023/02/17 07:45:38;;;;;;;3.15;1.70;;;20.40;45.10;;;;;;5057398;28;20025;-48
2023/02/17 07:48:04;;;;;;;2.38;1.55;;;20.40;45.10;;;;;;5054858;28;20488;-53
2023/02/17 07:50:30;;;;;;;4.55;1.60;;;20.40;45.20;;;;;;5056636;28;20462;-52
2023/02/17 07:52:56;;;;;;;3.20;1.60;;;20.50;45.20;;;;;;5061872;28;20118;-49
2023/02/17 07:55:23;;;;;;;4.80;2.00;;;20.50;45.30;;;;;;5055448;28;20033;-50
2023/02/17 07:57:48;;;;;;;3.28;1.83;;;20.50;45.30;;;;;;5061769;28;20032;-49
2023/02/17 08:00:15;;;;;;;3.63;2.00;;;20.50;45.30;;;;;;5059518;28;20379;-52
2023/02/17 08:02:41;;;;;;;3.67;1.63;;;20.50;45.30;;;;;;5058123;28;20448;-51
2023/02/17 08:05:07;;;;;;;3.55;1.90;;;20.50;45.30;;;;;;5040629;28;20033;-49
2023/02/17 08:07:33;;;;;;;3.08;1.60;;;20.50;45.30;;;;;;5055724;28;20085;-50
2023/02/17 08:15:30;;;;;;;3.72;1.88;;;20.60;45.20;;;;;;5058940;28;20098;-50
2023/02/17 08:17:57;;;;;;;4.45;1.70;;;20.60;45.20;;;;;;5066821;28;20029;-50
2023/02/17 08:20:23;;;;;;;3.10;1.90;;;20.60;45.20;;;;;;5063779;28;20063;-53
2023/02/17 08:22:48;;;;;;;3.83;1.73;;;20.70;45.20;;;;;;5068902;28;20053;-49
2023/02/17 08:25:14;;;;;;;2.92;1.60;;;20.60;45.10;;;;;;5065715;28;20500;-50
2023/02/17 08:27:40;;;;;;;2.60;1.50;;;20.70;45.20;;;;;;5062658;28;20082;-49
2023/02/17 08:30:07;;;;;;;3.33;1.80;;;20.70;45.10;;;;;;5044700;28;20036;-51
2023/02/17 08:32:32;;;;;;;3.42;1.75;;;20.70;45.10;;;;;;5059243;28;20048;-54
2023/02/17 08:34:58;;;;;;;2.97;1.70;;;20.80;45.10;;;;;;5057911;28;20025;-54
2023/02/17 08:37:24;;;;;;;2.83;1.60;;;20.80;45.00;;;;;;5061324;28;20027;-53
2023/02/17 08:39:50;;;;;;;5.72;1.60;;;20.80;45.00;;;;;;5060675;28;20181;-54
2023/02/17 08:42:16;;;;;;;3.65;1.70;;;20.90;45.00;;;;;;5057600;28;20025;-53
2023/02/17 08:44:42;;;;;;;4.60;1.80;;;20.90;45.00;;;;;;5061352;28;20028;-53
2023/02/17 08:47:09;;;;;;;3.67;1.77;;;20.90;44.90;;;;;;5060265;28;20341;-50
2023/02/17 08:49:35;;;;;;;3.25;1.70;;;20.90;44.90;;;;;;5057490;28;20028;-49
2023/02/17 08:52:01;;;;;;;3.45;1.40;;;21.00;44.80;;;;;;5055849;28;20105;-53
2023/02/17 08:54:27;;;;;;;4.53;1.58;;;21.00;44.80;;;;;;5054499;28;20033;-48
2023/02/17 08:56:53;;;;;;;3.13;1.80;;;21.00;44.70;;;;;;5056504;28;20021;-53
2023/02/17 08:59:19;;;;;;;2.05;1.45;;;21.00;44.70;;;;;;5054126;28;20043;-50
2023/02/17 09:01:45;;;;;;;3.63;1.52;;;21.00;44.70;;;;;;5055330;28;20044;-52
2023/02/17 09:04:13;;;;;;;2.22;1.40;;;21.10;44.70;;;;;;5055806;28;20029;-47
2023/02/17 09:06:42;;;;;;;3.92;1.90;;;21.10;44.70;;;;;;5063530;28;20471;-51
2023/02/17 09:09:10;;;;;;;2.63;1.40;;;21.20;44.70;;;;;;5065798;28;20021;-52
2023/02/17 09:11:36;;;;;;;2.85;1.55;;;21.20;44.70;;;;;;5067521;28;20055;-53
2023/02/17 09:14:02;;;;;;;2.17;1.17;;;21.20;44.70;;;;;;5063968;28;20348;-53
2023/02/17 09:16:29;;;;;;;5.10;1.58;;;21.20;44.60;;;;;;5062402;28;20472;-50
2023/02/17 09:18:54;;;;;;;2.83;1.60;;;21.20;44.60;;;;;;5062852;28;20063;-52
2023/02/17 09:21:20;;;;;;;4.60;1.20;;;21.20;44.50;;;;;;5063374;28;20415;-52
2023/02/17 09:23:47;;;;;;;2.20;1.10;;;21.20;44.50;;;;;;5062123;28;20059;-52
2023/02/17 09:26:15;;;;;;;2.72;1.38;;;21.30;44.50;;;;;;5065607;28;20027;-49
2023/02/17 09:28:42;;;;;;;2.50;1.13;;;21.30;44.50;;;;;;5062973;28;20076;-48
2023/02/17 09:31:13;;;;;;;1.85;1.02;;;21.30;44.50;;;;;;5064327;28;20113;-50
2023/02/17 09:33:40;;;;;;;2.70;1.40;;;21.30;44.50;;;;;;5062106;28;20059;-49
2023/02/17 09:36:08;;;;;;;1.67;1.15;;;21.30;44.40;;;;;;5043594;28;20099;-47
2023/02/17 09:38:34;;;;;;;3.00;1.17;;;21.30;44.40;;;;;;5062900;28;20059;-52
2023/02/17 09:41:14;;;;;;;1.35;1.00;;;21.40;44.40;;;;;;5065206;28;20033;-51
2023/02/17 09:43:41;;;;;;;1.98;0.93;;;21.40;44.40;;;;;;5064656;28;20060;-48
2023/02/17 09:46:17;;;;;;;2.17;1.02;;;21.40;44.30;;;;;;5061135;28;20145;-52
2023/02/17 09:48:45;;;;;;;2.05;1.00;;;21.40;44.30;;;;;;5064675;28;20036;-50
2023/02/17 09:51:27;;;;;;;1.77;0.90;;;21.40;44.30;;;;;;5063869;28;20085;-51
2023/02/17 09:54:16;;;;;;;1.75;1.15;;;21.40;44.30;;;;;;5062346;28;20096;-53
2023/02/17 09:56:47;;;;;;;1.90;1.00;;;21.40;44.20;;;;;;5062194;28;20057;-53
2023/02/17 09:59:44;;;;;;;3.22;1.27;;;21.40;44.20;;;;;;5062805;28;20100;-51
2023/02/17 10:02:23;;;;;;;2.60;1.00;;;21.40;44.20;;;;;;5046496;28;20048;-49
2023/02/17 10:04:52;;;;;;;1.52;1.00;;;21.40;44.20;;;;;;5063713;28;20411;-52
2023/02/17 10:07:40;;;;;;;1.33;0.93;;;21.50;44.20;;;;;;5062969;28;20048;-52
2023/02/17 10:10:17;;;;;;;2.15;1.08;;;21.50;44.20;;;;;;5063886;28;20032;-52
2023/02/17 10:12:52;;;;;;;4.20;1.15;;;21.40;44.00;;;;;;5062693;28;20056;-53
2023/02/17 10:15:27;;;;;;;1.58;1.10;;;21.40;44.00;;;;;;5060551;28;20162;-53
2023/02/17 10:18:04;;;;;;;1.98;1.15;;;21.50;44.10;;;;;;5064304;28;20044;-54
2023/02/17 10:20:30;;;;;;;1.50;0.80;;;21.40;44.00;;;;;;5064449;28;20031;-53
2023/02/17 10:23:15;;;;;;;1.60;0.93;;;21.50;44.00;;;;;;5061046;28;20036;-49
2023/02/17 10:25:56;;;;;;;1.30;0.80;;;21.50;44.00;;;;;;5065802;28;20024;-53
2023/02/17 10:28:48;;;;;;;1.58;1.08;;;21.50;43.90;;;;;;5062980;28;20083;-51
2023/02/17 10:31:44;;;;;;;1.13;0.80;;;21.50;43.90;;;;;;5026845;28;20039;-50
2023/02/17 10:34:28;;;;;;;1.77;1.10;;;21.50;43.80;;;;;;5059935;28;20419;-52
2023/02/17 10:37:03;;;;;;;1.13;0.65;;;21.50;43.80;;;;;;5063591;28;20034;-52
2023/02/17 10:39:53;;;;;;;1.77;1.05;;;21.50;43.80;;;;;;5065376;28;20020;-53
2023/02/17 10:42:33;;;;;;;1.35;0.70;;;21.50;43.70;;;;;;5059600;28;20525;-53
2023/02/17 10:45:09;;;;;;;1.58;0.70;;;21.50;43.70;;;;;;5063137;28;20054;-52
2023/02/17 10:47:37;;;;;;;1.13;0.70;;;21.60;43.70;;;;;;5063225;28;20038;-49
2023/02/17 10:50:12;;;;;;;1.70;0.88;;;21.50;43.60;;;;;;5061515;28;20028;-53
2023/02/17 10:52:40;;;;;;;1.48;0.70;;;21.60;43.70;;;;;;5062546;28;20391;-51
2023/02/17 10:55:09;;;;;;;1.20;0.90;;;21.60;43.70;;;;;;5064066;28;20036;-53
2023/02/17 10:57:37;;;;;;;0.70;0.70;;;21.60;43.60;;;;;;5062990;28;20033;-49
2023/02/17 11:00:07;;;;;;;1.17;0.88;;;21.60;43.60;;;;;;5045578;28;20116;-48
2023/02/17 11:02:40;;;;;;;1.42;0.73;;;21.60;43.60;;;;;;5044849;28;20029;-49
2023/02/17 11:05:07;;;;;;;1.80;0.70;;;21.60;44.20;;;;;;5062703;28;20037;-49
2023/02/17 11:07:35;;;;;;;1.35;0.90;;;21.60;43.50;;;;;;5060224;28;20106;-53
2023/02/17 11:10:18;;;;;;;1.25;0.70;;;21.60;43.50;;;;;;5061874;28;20029;-48
2023/02/17 11:12:44;;;;;;;1.35;0.70;;;21.60;43.40;;;;;;5060061;28;20041;-53
2023/02/17 11:15:23;;;;;;;1.88;0.70;;;21.70;43.50;;;;;;5057124;28;20125;-51
2023/02/17 11:17:50;;;;;;;5.05;0.70;;;21.70;43.40;;;;;;5056167;28;20113;-53
2023/02/17 11:20:15;;;;;;;1.05;0.70;;;21.70;43.40;;;;;;5055895;28;20452;-51
2023/02/17 11:23:15;;;;;;;2.20;1.00;;;21.70;43.40;;;;;;5056534;28;20028;-50
2023/02/17 11:25:42;;;;;;;1.20;0.70;;;21.70;43.50;;;;;;5043319;28;20029;-50
2023/02/17 11:28:22;;;;;;;0.93;0.75;;;21.70;43.60;;;;;;5056623;28;20017;-51
2023/02/17 11:30:51;;;;;;;2.13;1.08;;;21.70;43.50;;;;;;5054887;28;20021;-49
2023/02/17 11:33:27;;;;;;;1.40;0.90;;;21.70;43.50;;;;;;5061221;28;20466;-46
2023/02/17 11:35:55;;;;;;;1.15;0.70;;;21.80;43.60;;;;;;5065730;28;20059;-47
2023/02/17 11:38:42;;;;;;;2.85;0.85;;;21.80;43.50;;;;;;5064078;28;20035;-49
2023/02/17 11:41:10;;;;;;;1.05;0.82;;;21.80;43.50;;;;;;5051959;28;20039;-52
2023/02/17 11:43:37;;;;;;;1.90;0.75;;;21.80;43.50;;;;;;5042256;28;20466;-51
2023/02/17 11:46:22;;;;;;;2.75;0.82;;;21.80;43.50;;;;;;5042433;28;20048;-50
2023/02/17 11:48:57;;;;;;;1.70;0.98;;;21.80;43.40;;;;;;5057394;28;20116;-49
2023/02/17 11:51:28;;;;;;;1.10;0.80;;;21.80;43.40;;;;;;5059979;28;20523;-51
2023/02/17 11:54:33;;;;;;;1.75;0.90;;;21.80;43.40;;;;;;5062438;28;20421;-48
2023/02/17 11:57:30;;;;;;;1.15;0.88;;;21.80;43.30;;;;;;5061292;28;20025;-51
2023/02/17 12:00:33;;;;;;;1.65;0.80;;;21.80;43.30;;;;;;5031410;28;20535;-49
2023/02/17 12:03:17;;;;;;;1.42;0.75;;;21.80;43.30;;;;;;5012474;28;20036;-51
2023/02/17 12:06:07;;;;;;;0.82;0.68;;;21.80;43.30;;;;;;5045804;28;20047;-49
2023/02/17 12:08:41;;;;;;;2.15;1.00;;;21.80;43.40;;;;;;5062067;28;20075;-48
2023/02/17 12:11:32;;;;;;;1.38;0.80;;;21.80;43.40;;;;;;5059940;28;20020;-50
2023/02/17 12:14:09;;;;;;;1.85;1.10;;;21.80;43.30;;;;;;5048766;28;20040;-49
2023/02/17 12:17:04;;;;;;;3.88;0.98;;;21.80;43.40;;;;;;5063187;28;20048;-52
2023/02/17 12:19:37;;;;;;;;;;;21.80;43.30;;;;;;5061235;28;20044;-48
2023/02/17 12:22:26;;;;;;;2.22;1.27;;;21.80;43.40;;;;;;5058687;28;20007;-55
2023/02/17 12:25:21;;;;;;;5.10;1.10;;;21.80;43.40;;;;;;5062276;28;20029;-48
2023/02/17 12:28:08;;;;;;;2.50;1.15;;;21.80;43.40;;;;;;5046368;28;20150;-51
2023/02/17 12:30:54;;;;;;;2.35;0.90;;;21.80;43.40;;;;;;5065785;28;20029;-50
2023/02/17 12:33:39;;;;;;;1.98;1.20;;;21.80;43.40;;;;;;5038502;28;20049;-49
2023/02/17 12:36:13;;;;;;;1.45;0.90;;;21.80;43.40;;;;;;5055976;28;20028;-52
2023/02/17 12:38:46;;;;;;;2.83;1.00;;;21.90;43.50;;;;;;5061526;28;20036;-51
2023/02/17 12:41:23;;;;;;;1.17;0.90;;;21.80;43.40;;;;;;5058306;28;20082;-49
2023/02/17 12:43:53;;;;;;;2.35;0.90;;;21.80;43.50;;;;;;5039466;28;20052;-50
2023/02/17 12:46:27;;;;;;;1.75;1.15;;;21.80;43.50;;;;;;5056534;28;20146;-49
2023/02/17 12:49:08;;;;;;;2.35;1.00;;;21.80;43.50;;;;;;5055547;28;20033;-49
2023/02/17 12:51:59;;;;;;;2.97;1.27;;;21.80;43.50;;;;;;5057662;28;20041;-53
2023/02/17 12:54:41;;;;;;;1.38;0.80;;;21.90;43.60;;;;;;5045131;28;20040;-51
2023/02/17 12:57:09;;;;;;;1.55;1.10;;;21.80;43.50;;;;;;5060518;28;20059;-50
2023/02/17 12:59:37;;;;;;;1.95;1.00;;;21.80;43.50;;;;;;5055233;28;20050;-51
2023/02/17 13:02:34;;;;;;;5.30;1.02;;;21.80;43.50;;;;;;5057030;28;20036;-50
2023/02/17 13:05:05;;;;;;;2.10;1.13;;;21.80;43.50;;;;;;5041775;28;20044;-53
2023/02/17 13:07:38;;;;;;;2.78;1.05;;;21.80;43.50;;;;;;5064506;28;20086;-53
2023/02/17 13:10:05;;;;;;;2.75;0.93;;;21.80;43.50;;;;;;5065659;28;20086;-53
2023/02/17 13:12:35;;;;;;;2.17;0.93;;;21.80;43.50;;;;;;5064555;28;20513;-49